Time;durP1;ratioP1;P1;durP2;ratioP2;P2;SDS_P1;SDS_P2;PMS_P1;PMS_P2;Temp;Humidity;BMP_temperature;BMP_pressure;BME280_temperature;BME280_humidity;BME280_pressure;Samples;Min_cycle;Max_cycle;Signal;HPM_P1;HPM_P2
2020/12/06 00:00:56;;;;;;;55.42;26.77;;;1.30;99.90;;;;;;5094228;28;20020;-70
2020/12/06 00:03:22;;;;;;;52.35;26.08;;;1.30;99.90;;;;;;5093013;28;20073;-70
2020/12/06 00:05:47;;;;;;;51.75;25.88;;;1.20;99.90;;;;;;5093483;28;20135;-70
2020/12/06 00:08:13;;;;;;;53.10;26.17;;;1.20;99.90;;;;;;5092297;28;20035;-70
2020/12/06 00:10:38;;;;;;;65.75;29.50;;;1.20;99.90;;;;;;5092389;28;20027;-70
2020/12/06 00:13:04;;;;;;;58.13;26.90;;;1.20;99.90;;;;;;5094093;28;20024;-70
2020/12/06 00:15:30;;;;;;;58.38;27.65;;;1.20;99.90;;;;;;5092598;28;20081;-69
2020/12/06 00:17:55;;;;;;;62.63;27.85;;;1.20;99.90;;;;;;5094060;28;20103;-69
2020/12/06 00:20:21;;;;;;;67.50;29.67;;;1.20;99.90;;;;;;5092536;28;20409;-70
2020/12/06 00:22:46;;;;;;;57.90;27.10;;;1.10;99.90;;;;;;5092576;28;20485;-69
2020/12/06 00:25:12;;;;;;;59.58;27.80;;;1.10;99.90;;;;;;5093577;28;20097;-70
2020/12/06 00:27:37;;;;;;;57.22;26.45;;;1.00;99.90;;;;;;5093998;28;20099;-70
2020/12/06 00:30:07;;;;;;;64.05;30.67;;;1.00;99.90;;;;;;5093386;28;20502;-70
2020/12/06 00:32:33;;;;;;;68.90;31.15;;;1.00;99.90;;;;;;5093948;28;20020;-70
2020/12/06 00:34:59;;;;;;;76.00;33.42;;;1.00;99.90;;;;;;5092087;28;20047;-69
2020/12/06 00:37:24;;;;;;;72.82;33.30;;;1.10;99.90;;;;;;5093862;28;20028;-69
2020/12/06 00:39:50;;;;;;;75.65;34.67;;;1.00;99.90;;;;;;5093846;28;20032;-70
2020/12/06 00:42:15;;;;;;;79.18;34.20;;;1.00;99.90;;;;;;5092833;28;20423;-69
2020/12/06 00:44:41;;;;;;;75.00;33.90;;;1.00;99.90;;;;;;5093414;28;20422;-70
2020/12/06 00:47:06;;;;;;;71.35;33.53;;;0.90;99.90;;;;;;5093269;28;20020;-70
2020/12/06 00:49:32;;;;;;;67.60;31.92;;;0.90;99.90;;;;;;5096580;28;20051;-70
2020/12/06 00:51:58;;;;;;;69.45;33.05;;;0.80;99.90;;;;;;5095914;28;20488;-69
2020/12/06 00:54:24;;;;;;;71.68;33.35;;;0.80;99.90;;;;;;5097666;28;20024;-69
2020/12/06 00:56:57;;;;;;;66.57;31.13;;;0.80;99.90;;;;;;5096176;28;20024;-69
2020/12/06 00:59:24;;;;;;;70.47;31.55;;;0.70;99.90;;;;;;5096101;28;20028;-69
2020/12/06 01:01:50;;;;;;;67.25;32.30;;;0.60;99.90;;;;;;5096532;28;20032;-69
2020/12/06 01:04:16;;;;;;;84.55;35.08;;;0.60;99.90;;;;;;5095506;28;20047;-69
2020/12/06 01:06:42;;;;;;;80.70;35.92;;;0.60;99.90;;;;;;5096361;28;20077;-69
2020/12/06 01:09:07;;;;;;;79.68;36.28;;;0.60;99.90;;;;;;5096343;28;20031;-69
2020/12/06 01:11:33;;;;;;;77.07;35.15;;;0.60;99.90;;;;;;5096342;28;20073;-69
2020/12/06 01:13:59;;;;;;;75.82;32.97;;;0.60;99.90;;;;;;5095816;28;20032;-69
2020/12/06 01:16:24;;;;;;;77.53;33.72;;;0.80;99.90;;;;;;5097243;28;20020;-69
2020/12/06 01:18:50;;;;;;;78.18;33.60;;;1.00;99.90;;;;;;5096844;28;20350;-69
2020/12/06 01:21:15;;;;;;;78.18;36.25;;;1.10;99.90;;;;;;5096550;28;20106;-69
2020/12/06 01:23:41;;;;;;;75.70;34.20;;;1.20;99.90;;;;;;5095597;28;20081;-69
2020/12/06 01:26:10;;;;;;;73.20;34.70;;;1.40;99.90;;;;;;5095523;28;20469;-69
2020/12/06 01:28:36;;;;;;;71.93;33.13;;;1.50;99.90;;;;;;5095544;28;20028;-70
2020/12/06 01:31:01;;;;;;;65.03;32.50;;;1.50;99.90;;;;;;5095767;28;20031;-69
2020/12/06 01:33:27;;;;;;;66.90;32.33;;;1.50;99.90;;;;;;5096293;28;20024;-69
2020/12/06 01:35:53;;;;;;;69.25;32.90;;;1.50;99.90;;;;;;5096803;28;20028;-69
2020/12/06 01:38:18;;;;;;;66.10;30.30;;;1.60;99.90;;;;;;5094944;28;20032;-69
2020/12/06 01:40:44;;;;;;;65.60;30.05;;;1.50;99.90;;;;;;5095712;28;20031;-69
2020/12/06 01:43:10;;;;;;;62.67;29.92;;;1.40;99.90;;;;;;5096419;28;20065;-69
2020/12/06 01:45:37;;;;;;;61.08;30.08;;;1.30;99.90;;;;;;5096060;28;20512;-70
2020/12/06 01:48:07;;;;;;;65.80;30.75;;;1.20;99.90;;;;;;5096617;28;20089;-70
2020/12/06 01:50:35;;;;;;;67.97;30.77;;;1.10;99.90;;;;;;5096565;28;20020;-69
2020/12/06 01:53:02;;;;;;;71.07;31.48;;;1.00;99.90;;;;;;5094696;28;20027;-69
2020/12/06 01:55:28;;;;;;;66.75;30.58;;;1.10;99.90;;;;;;5096220;28;20036;-69
2020/12/06 01:58:04;;;;;;;77.10;31.88;;;1.10;99.90;;;;;;5096071;28;20027;-69
2020/12/06 02:00:30;;;;;;;71.43;30.38;;;1.10;99.90;;;;;;5095234;28;20024;-69
2020/12/06 02:02:57;;;;;;;67.90;31.65;;;1.10;99.90;;;;;;5077657;28;20024;-69
2020/12/06 02:05:22;;;;;;;68.78;31.98;;;1.10;99.90;;;;;;5094379;28;20097;-69
2020/12/06 02:07:48;;;;;;;69.38;31.10;;;1.10;99.90;;;;;;5094760;28;20024;-69
2020/12/06 02:10:14;;;;;;;73.05;32.70;;;1.20;99.90;;;;;;5095493;28;20020;-69
2020/12/06 02:12:47;;;;;;;77.20;34.25;;;1.30;99.90;;;;;;5096118;28;20346;-69
2020/12/06 02:15:13;;;;;;;;;;;1.50;99.90;;;;;;5095980;28;20059;-69
2020/12/06 02:17:39;;;;;;;75.03;32.30;;;1.50;99.90;;;;;;5094774;28;19998;-69
2020/12/06 02:20:05;;;;;;;70.40;33.10;;;1.60;99.90;;;;;;5094839;28;20436;-69
2020/12/06 02:22:31;;;;;;;72.45;32.40;;;1.60;99.90;;;;;;5095681;28;20024;-69
2020/12/06 02:24:56;;;;;;;69.90;32.42;;;1.60;99.90;;;;;;5094100;28;20032;-69
2020/12/06 02:27:22;;;;;;;73.57;33.33;;;1.60;99.90;;;;;;5095817;28;20031;-69
2020/12/06 02:29:47;;;;;;;73.47;33.85;;;1.70;99.90;;;;;;5095804;28;20458;-69
2020/12/06 02:32:13;;;;;;;73.00;32.78;;;1.60;99.90;;;;;;5094713;28;20020;-69
2020/12/06 02:34:39;;;;;;;71.18;33.00;;;1.60;99.90;;;;;;5095122;28;20020;-69
2020/12/06 02:37:05;;;;;;;73.10;33.88;;;1.60;99.90;;;;;;5095657;28;20020;-69
2020/12/06 02:39:30;;;;;;;67.93;32.40;;;1.70;99.90;;;;;;5095274;28;20484;-69
2020/12/06 02:41:56;;;;;;;72.55;33.22;;;1.70;99.90;;;;;;5095581;28;20026;-69
2020/12/06 02:44:22;;;;;;;71.13;33.03;;;1.70;99.90;;;;;;5094973;28;20465;-69
2020/12/06 02:46:47;;;;;;;69.63;31.75;;;1.80;99.90;;;;;;5076696;28;20051;-69
2020/12/06 02:49:13;;;;;;;61.55;30.33;;;1.80;99.90;;;;;;5095437;28;20024;-69
2020/12/06 02:51:38;;;;;;;64.32;30.67;;;1.80;99.90;;;;;;5094816;28;20028;-70
2020/12/06 02:54:04;;;;;;;66.82;32.65;;;1.80;99.90;;;;;;5095329;28;20016;-70
2020/12/06 02:56:30;;;;;;;70.78;32.55;;;1.70;99.90;;;;;;5094717;28;20068;-69
2020/12/06 02:58:56;;;;;;;66.93;29.92;;;1.80;99.90;;;;;;5094975;28;20032;-69
2020/12/06 03:01:26;;;;;;;70.30;31.20;;;1.80;99.90;;;;;;5093734;28;20035;-70
2020/12/06 03:03:51;;;;;;;64.63;30.95;;;1.80;99.90;;;;;;5095002;28;20039;-69
2020/12/06 03:06:17;;;;;;;71.80;32.42;;;1.90;99.90;;;;;;5093480;28;20020;-70
2020/12/06 03:08:42;;;;;;;75.97;34.90;;;1.90;99.90;;;;;;5095042;28;20020;-70
2020/12/06 03:11:08;;;;;;;66.28;32.50;;;2.00;99.90;;;;;;5092500;28;20024;-69
2020/12/06 03:13:34;;;;;;;69.95;31.50;;;2.10;99.90;;;;;;5093165;28;20400;-69
2020/12/06 03:16:00;;;;;;;65.57;31.98;;;2.20;99.90;;;;;;5094936;28;20096;-69
2020/12/06 03:18:26;;;;;;;67.22;30.77;;;2.30;99.90;;;;;;5094888;28;20027;-69
2020/12/06 03:20:52;;;;;;;63.10;30.02;;;2.30;99.90;;;;;;5094810;28;20028;-69
2020/12/06 03:23:17;;;;;;;66.75;33.53;;;2.30;99.90;;;;;;5094487;28;20058;-69
2020/12/06 03:25:43;;;;;;;64.13;30.50;;;2.30;99.90;;;;;;5094649;28;20373;-69
2020/12/06 03:28:08;;;;;;;66.50;31.30;;;2.30;99.90;;;;;;5093539;28;20052;-69
2020/12/06 03:30:34;;;;;;;69.95;33.35;;;2.30;99.90;;;;;;5093513;28;20024;-69
2020/12/06 03:32:59;;;;;;;68.70;31.60;;;2.40;99.90;;;;;;5092813;28;20024;-70
2020/12/06 03:35:25;;;;;;;67.40;33.22;;;2.40;99.90;;;;;;5092790;28;20032;-69
2020/12/06 03:37:50;;;;;;;66.57;32.15;;;2.40;99.90;;;;;;5094212;28;20028;-69
2020/12/06 03:40:16;;;;;;;68.35;32.03;;;2.40;99.90;;;;;;5075852;28;20024;-69
2020/12/06 03:42:42;;;;;;;65.38;31.23;;;2.50;99.90;;;;;;5093425;28;20035;-69
2020/12/06 03:45:07;;;;;;;72.22;31.83;;;2.60;99.90;;;;;;5094375;28;20028;-69
2020/12/06 03:47:33;;;;;;;63.83;30.45;;;2.50;99.90;;;;;;5092922;28;20053;-69
2020/12/06 03:49:58;;;;;;;64.45;31.95;;;2.60;99.90;;;;;;5093161;28;20050;-69
2020/12/06 03:52:24;;;;;;;71.88;33.85;;;2.60;99.90;;;;;;5092502;28;20081;-69
2020/12/06 03:54:50;;;;;;;65.22;31.35;;;2.60;99.90;;;;;;5094282;28;20024;-69
2020/12/06 03:57:15;;;;;;;66.88;31.88;;;2.70;99.90;;;;;;5093748;28;20027;-69
2020/12/06 03:59:41;;;;;;;66.70;33.08;;;2.70;99.90;;;;;;5093654;28;20024;-69
2020/12/06 04:02:06;;;;;;;68.90;33.47;;;2.80;99.90;;;;;;5075667;28;20024;-69
2020/12/06 04:04:32;;;;;;;69.80;30.38;;;2.80;99.90;;;;;;5092594;28;20039;-69
2020/12/06 04:06:58;;;;;;;62.72;31.95;;;2.80;99.90;;;;;;5093626;28;20024;-69
2020/12/06 04:09:23;;;;;;;65.85;32.35;;;2.80;99.90;;;;;;5093571;28;20032;-69
2020/12/06 04:11:49;;;;;;;63.95;32.08;;;2.80;99.90;;;;;;5094061;28;20030;-69
2020/12/06 04:14:14;;;;;;;69.45;32.83;;;2.80;99.90;;;;;;5092650;28;20023;-69
2020/12/06 04:16:40;;;;;;;59.72;30.73;;;2.80;99.90;;;;;;5094038;28;20469;-69
2020/12/06 04:19:05;;;;;;;63.20;31.45;;;2.80;99.90;;;;;;5092645;28;20055;-69
2020/12/06 04:21:31;;;;;;;67.45;32.80;;;2.90;99.90;;;;;;5094846;28;20027;-69
2020/12/06 04:23:57;;;;;;;69.55;31.75;;;2.90;99.90;;;;;;5098233;28;20468;-69
2020/12/06 04:26:22;;;;;;;62.53;30.75;;;2.80;99.90;;;;;;5096657;28;20038;-69
2020/12/06 04:28:48;;;;;;;63.92;32.10;;;2.90;99.90;;;;;;5097868;28;20380;-69
2020/12/06 04:31:13;;;;;;;68.40;32.50;;;2.90;99.90;;;;;;5097086;28;20113;-69
2020/12/06 04:33:39;;;;;;;68.40;34.00;;;2.90;99.90;;;;;;5098018;28;20031;-69
2020/12/06 04:36:04;;;;;;;61.70;32.15;;;2.90;99.90;;;;;;5097740;28;20387;-69
2020/12/06 04:38:30;;;;;;;68.50;32.08;;;2.90;99.90;;;;;;5097420;28;20020;-69
2020/12/06 04:40:55;;;;;;;63.45;32.53;;;2.80;99.90;;;;;;5097649;28;20028;-69
2020/12/06 04:43:21;;;;;;;62.50;30.95;;;2.90;99.90;;;;;;5096160;28;20107;-69
2020/12/06 04:45:47;;;;;;;66.57;31.05;;;3.00;99.90;;;;;;5097493;28;20376;-70
2020/12/06 04:48:26;;;;;;;65.60;32.10;;;3.00;99.90;;;;;;5096054;28;20043;-69
2020/12/06 04:50:54;;;;;;;64.38;32.30;;;3.00;99.90;;;;;;5097753;28;20016;-69
2020/12/06 04:53:26;;;;;;;64.80;31.67;;;3.00;99.90;;;;;;5096729;28;20111;-69
2020/12/06 04:55:54;;;;;;;59.72;30.25;;;3.00;99.90;;;;;;5097649;28;20023;-69
2020/12/06 04:58:26;;;;;;;63.40;29.95;;;3.10;99.90;;;;;;5097590;28;20020;-69
2020/12/06 05:00:52;;;;;;;59.63;29.83;;;3.00;99.90;;;;;;5095745;28;20020;-69
2020/12/06 05:03:22;;;;;;;60.90;30.15;;;3.00;99.90;;;;;;5097517;28;20141;-69
2020/12/06 05:05:50;;;;;;;57.92;30.77;;;3.00;99.90;;;;;;5095472;28;20552;-69
2020/12/06 05:08:17;;;;;;;62.63;30.25;;;2.90;99.90;;;;;;5097390;28;20024;-69
2020/12/06 05:10:48;;;;;;;63.33;31.52;;;2.90;99.90;;;;;;5097349;28;20100;-69
2020/12/06 05:13:15;;;;;;;69.15;34.05;;;2.80;99.90;;;;;;5097067;28;20020;-69
2020/12/06 05:15:42;;;;;;;62.45;32.78;;;2.80;99.90;;;;;;5097025;28;20020;-69
2020/12/06 05:18:07;;;;;;;65.07;32.47;;;2.80;99.90;;;;;;5095757;28;20071;-69
2020/12/06 05:20:34;;;;;;;70.03;33.80;;;2.80;99.90;;;;;;5095964;28;20052;-69
2020/12/06 05:22:59;;;;;;;66.35;33.20;;;2.80;99.90;;;;;;5095955;28;20035;-69
2020/12/06 05:25:25;;;;;;;67.22;33.58;;;2.80;99.90;;;;;;5097005;28;20028;-69
2020/12/06 05:27:51;;;;;;;71.20;32.45;;;2.80;99.90;;;;;;5097006;28;20031;-70
2020/12/06 05:30:17;;;;;;;65.90;32.25;;;2.80;99.90;;;;;;5096744;28;20089;-69
2020/12/06 05:32:43;;;;;;;70.15;33.75;;;2.80;99.90;;;;;;5095978;28;20035;-69
2020/12/06 05:35:10;;;;;;;69.22;34.20;;;2.80;99.90;;;;;;5095738;28;20028;-69
2020/12/06 05:37:37;;;;;;;68.03;33.13;;;2.80;99.90;;;;;;5095086;28;20062;-69
2020/12/06 05:40:08;;;;;;;72.28;35.03;;;2.80;99.90;;;;;;5095371;28;20020;-70
2020/12/06 05:42:36;;;;;;;67.20;32.55;;;2.80;99.90;;;;;;5096801;28;20107;-69
2020/12/06 05:45:04;;;;;;;68.32;33.42;;;2.80;99.90;;;;;;5096608;28;20056;-69
2020/12/06 05:47:29;;;;;;;64.82;32.33;;;2.80;99.90;;;;;;5096388;28;20382;-69
2020/12/06 05:49:56;;;;;;;63.95;32.33;;;2.80;99.90;;;;;;5096569;28;20024;-69
2020/12/06 05:52:22;;;;;;;59.10;31.15;;;2.90;99.90;;;;;;5096591;28;20016;-69
2020/12/06 05:54:48;;;;;;;67.55;32.80;;;2.80;99.90;;;;;;5095995;28;20473;-69
2020/12/06 05:57:14;;;;;;;68.30;32.97;;;2.80;99.90;;;;;;5096526;28;20020;-69
2020/12/06 05:59:40;;;;;;;61.28;31.38;;;2.80;99.90;;;;;;5094947;28;20027;-69
2020/12/06 06:02:07;;;;;;;65.60;31.55;;;2.80;99.90;;;;;;5096349;28;20016;-69
2020/12/06 06:04:40;;;;;;;67.35;33.47;;;2.90;99.90;;;;;;5095963;28;20170;-69
2020/12/06 06:07:12;;;;;;;;;;;2.80;99.90;;;;;;5079032;28;20031;-69
2020/12/06 06:09:41;;;;;;;70.38;31.02;;;2.90;99.90;;;;;;5096230;28;20032;-69
2020/12/06 06:12:27;;;;;;;62.28;30.75;;;2.90;99.90;;;;;;5077529;28;20480;-69
2020/12/06 06:14:54;;;;;;;61.83;29.67;;;2.90;99.90;;;;;;5096169;28;20028;-68
2020/12/06 06:17:22;;;;;;;60.25;31.77;;;2.90;99.90;;;;;;5096097;28;20048;-69
2020/12/06 06:19:48;;;;;;;66.10;31.92;;;2.90;99.90;;;;;;5095764;28;20028;-69
2020/12/06 06:22:15;;;;;;;60.70;30.80;;;3.00;99.90;;;;;;5095968;28;20023;-70
2020/12/06 06:24:42;;;;;;;57.05;29.30;;;3.00;99.90;;;;;;5095853;28;20020;-69
2020/12/06 06:27:08;;;;;;;58.75;29.98;;;3.00;99.90;;;;;;5094136;28;20381;-70
2020/12/06 06:29:36;;;;;;;58.38;29.98;;;3.00;99.90;;;;;;5096160;28;20066;-69
2020/12/06 06:32:03;;;;;;;60.25;28.88;;;3.00;99.90;;;;;;5095543;28;20024;-69
2020/12/06 06:34:31;;;;;;;54.72;28.55;;;3.00;99.90;;;;;;5095787;28;20026;-70
2020/12/06 06:36:58;;;;;;;61.17;30.35;;;3.10;99.90;;;;;;5095166;28;20024;-69
2020/12/06 06:39:25;;;;;;;55.50;29.60;;;3.00;99.90;;;;;;5095412;28;20047;-69
2020/12/06 06:42:10;;;;;;;59.80;29.85;;;3.10;99.90;;;;;;5094148;28;20024;-70
2020/12/06 06:44:38;;;;;;;59.00;30.33;;;3.00;99.90;;;;;;5094428;28;20066;-68
2020/12/06 06:47:06;;;;;;;57.28;29.45;;;3.00;99.90;;;;;;5095068;28;20453;-69
2020/12/06 06:49:34;;;;;;;55.55;29.17;;;3.00;99.90;;;;;;5093990;28;20409;-69
2020/12/06 06:52:03;;;;;;;58.08;29.08;;;2.90;99.90;;;;;;5095445;28;20113;-70
2020/12/06 06:54:30;;;;;;;55.72;29.67;;;3.00;99.90;;;;;;5093939;28;20099;-69
2020/12/06 06:56:57;;;;;;;58.20;30.75;;;2.90;99.90;;;;;;5093538;28;20113;-70
2020/12/06 06:59:39;;;;;;;59.33;31.05;;;2.90;99.90;;;;;;5093559;28;20023;-69
2020/12/06 07:02:06;;;;;;;59.78;31.67;;;3.00;99.90;;;;;;5094972;28;20031;-69
2020/12/06 07:04:32;;;;;;;63.10;31.85;;;3.10;99.90;;;;;;5093805;28;20048;-69
2020/12/06 07:06:58;;;;;;;62.13;31.95;;;3.10;99.90;;;;;;5094786;28;20047;-69
2020/12/06 07:09:27;;;;;;;60.88;30.73;;;3.10;99.90;;;;;;5095097;28;20461;-69
2020/12/06 07:11:54;;;;;;;62.90;31.58;;;3.10;99.90;;;;;;5094474;28;20469;-69
2020/12/06 07:14:24;;;;;;;66.63;32.58;;;3.10;99.90;;;;;;5094754;28;20020;-69
2020/12/06 07:16:51;;;;;;;67.05;33.22;;;3.10;99.90;;;;;;5094935;28;20369;-69
2020/12/06 07:19:17;;;;;;;61.83;32.58;;;3.10;99.90;;;;;;5093153;28;20028;-69
2020/12/06 07:21:43;;;;;;;63.40;31.70;;;3.10;99.90;;;;;;5093066;28;20105;-69
2020/12/06 07:24:09;;;;;;;70.10;34.13;;;3.20;99.90;;;;;;5094833;28;20070;-69
2020/12/06 07:26:34;;;;;;;67.85;34.50;;;3.10;99.90;;;;;;5093590;28;20024;-69
2020/12/06 07:29:00;;;;;;;66.07;31.95;;;3.10;99.90;;;;;;5092882;28;20028;-69
2020/12/06 07:31:26;;;;;;;75.82;35.13;;;3.20;99.90;;;;;;5094751;28;20074;-69
2020/12/06 07:33:52;;;;;;;75.15;34.85;;;3.20;99.90;;;;;;5094696;28;20366;-69
2020/12/06 07:36:18;;;;;;;71.47;32.92;;;3.10;99.90;;;;;;5092830;28;20020;-69
2020/12/06 07:38:44;;;;;;;74.43;34.92;;;3.20;99.90;;;;;;5093408;28;20028;-69
2020/12/06 07:41:10;;;;;;;82.57;37.03;;;3.10;99.90;;;;;;5094515;28;20431;-69
2020/12/06 07:43:35;;;;;;;70.20;34.80;;;3.10;99.90;;;;;;5094541;28;20020;-69
2020/12/06 07:46:17;;;;;;;71.85;35.05;;;3.20;99.90;;;;;;5094415;28;20035;-69
2020/12/06 07:48:44;;;;;;;76.72;36.03;;;3.20;99.90;;;;;;5092957;28;20465;-69
2020/12/06 07:51:10;;;;;;;73.70;36.20;;;3.20;99.90;;;;;;5094401;28;20132;-69
2020/12/06 07:53:46;;;;;;;71.28;36.65;;;3.20;99.90;;;;;;5094378;28;20050;-69
2020/12/06 07:56:13;;;;;;;66.93;35.45;;;3.20;99.90;;;;;;5093046;28;20032;-69
2020/12/06 07:58:43;;;;;;;68.95;33.90;;;3.20;99.90;;;;;;5094337;28;20032;-69
2020/12/06 08:01:09;;;;;;;70.00;34.55;;;3.20;99.90;;;;;;5093102;28;20107;-69
2020/12/06 08:03:35;;;;;;;69.78;33.00;;;3.30;99.90;;;;;;5093095;28;20119;-69
2020/12/06 08:06:03;;;;;;;71.10;35.03;;;3.40;99.90;;;;;;5075343;28;20470;-69
2020/12/06 08:08:34;;;;;;;63.97;32.67;;;3.40;99.90;;;;;;5093907;28;20475;-69
2020/12/06 08:11:02;;;;;;;66.65;33.90;;;3.40;99.90;;;;;;5093883;28;20473;-69
2020/12/06 08:13:29;;;;;;;68.10;34.10;;;3.40;99.90;;;;;;5092720;28;20020;-69
2020/12/06 08:16:06;;;;;;;69.38;34.83;;;3.40;99.90;;;;;;5093850;28;20085;-69
2020/12/06 08:18:32;;;;;;;72.03;34.92;;;3.40;99.90;;;;;;5093567;28;20391;-69
2020/12/06 08:20:57;;;;;;;70.63;34.65;;;3.40;99.90;;;;;;5092950;28;20114;-69
2020/12/06 08:23:32;;;;;;;67.95;34.58;;;3.40;99.90;;;;;;5094054;28;20107;-69
2020/12/06 08:25:57;;;;;;;66.32;33.47;;;3.50;99.90;;;;;;5093984;28;20028;-69
2020/12/06 08:28:23;;;;;;;67.95;35.05;;;3.50;99.90;;;;;;5093987;28;20077;-69
2020/12/06 08:30:48;;;;;;;66.45;34.58;;;3.50;99.90;;;;;;5093979;28;20020;-69
2020/12/06 08:33:22;;;;;;;64.38;33.17;;;3.50;99.90;;;;;;5093703;28;20468;-69
2020/12/06 08:35:48;;;;;;;73.13;34.20;;;3.60;99.90;;;;;;5092991;28;20028;-69
2020/12/06 08:38:32;;;;;;;67.97;35.50;;;3.60;99.90;;;;;;5093662;28;20030;-69
2020/12/06 08:40:58;;;;;;;;;;;3.60;99.90;;;;;;5094066;28;20028;-69
2020/12/06 08:43:24;;;;;;;75.60;35.10;;;3.50;99.90;;;;;;5093592;28;19904;-69
2020/12/06 08:46:10;;;;;;;68.80;35.35;;;3.60;99.90;;;;;;5092590;28;20107;-69
2020/12/06 08:48:36;;;;;;;76.70;36.28;;;3.60;99.90;;;;;;5093775;28;20020;-69
2020/12/06 08:51:02;;;;;;;75.40;34.72;;;3.70;99.90;;;;;;5093521;28;20024;-69
2020/12/06 08:53:41;;;;;;;68.30;34.53;;;3.70;99.90;;;;;;5093799;28;20465;-68
2020/12/06 08:56:22;;;;;;;64.45;33.67;;;3.80;99.90;;;;;;5075666;28;20024;-69
2020/12/06 08:58:47;;;;;;;67.53;33.67;;;3.90;99.90;;;;;;5093481;28;20436;-69
2020/12/06 09:01:13;;;;;;;67.70;33.78;;;3.90;99.90;;;;;;5075027;28;20051;-69
2020/12/06 09:03:38;;;;;;;69.40;34.28;;;3.90;99.90;;;;;;5092470;28;20032;-69
2020/12/06 09:06:04;;;;;;;66.38;34.85;;;3.90;99.90;;;;;;5092897;28;20044;-69
2020/12/06 09:08:29;;;;;;;69.25;33.83;;;4.00;99.90;;;;;;5093077;28;20062;-69
2020/12/06 09:10:55;;;;;;;69.75;34.30;;;4.00;99.90;;;;;;5078617;28;20028;-69
2020/12/06 09:13:21;;;;;;;64.03;33.60;;;4.00;99.90;;;;;;5095460;28;20028;-69
2020/12/06 09:15:46;;;;;;;70.28;34.25;;;4.00;99.90;;;;;;5097257;28;20035;-69
2020/12/06 09:18:12;;;;;;;67.95;33.85;;;4.00;99.90;;;;;;5096919;28;20111;-69
2020/12/06 09:20:37;;;;;;;64.82;34.15;;;4.10;99.90;;;;;;5095740;28;20028;-69
2020/12/06 09:23:03;;;;;;;61.47;32.60;;;4.10;99.90;;;;;;5095824;28;20043;-69
2020/12/06 09:25:28;;;;;;;63.45;33.40;;;4.20;99.90;;;;;;5095979;28;20035;-69
2020/12/06 09:27:55;;;;;;;66.75;34.22;;;4.10;99.90;;;;;;5097003;28;20099;-69
2020/12/06 09:30:21;;;;;;;63.10;32.95;;;4.20;99.90;;;;;;5097003;28;20457;-69
2020/12/06 09:32:46;;;;;;;67.20;34.03;;;4.30;99.90;;;;;;5078336;28;20028;-69
2020/12/06 09:35:12;;;;;;;66.35;35.10;;;4.20;99.90;;;;;;5095441;28;20033;-69
2020/12/06 09:37:37;;;;;;;70.95;36.72;;;4.20;99.90;;;;;;5096879;28;20043;-70
2020/12/06 09:40:03;;;;;;;69.13;34.33;;;4.20;99.90;;;;;;5095585;28;20024;-69
2020/12/06 09:42:29;;;;;;;69.18;35.78;;;4.10;99.90;;;;;;5094986;28;20084;-69
2020/12/06 09:44:54;;;;;;;66.78;34.08;;;4.20;99.90;;;;;;5096600;28;20031;-69
2020/12/06 09:47:20;;;;;;;69.78;35.13;;;4.30;99.90;;;;;;5096655;28;20020;-69
2020/12/06 09:49:45;;;;;;;66.38;33.92;;;4.30;99.90;;;;;;5096326;28;20378;-69
2020/12/06 09:52:11;;;;;;;69.55;35.40;;;4.20;99.90;;;;;;5095996;28;20384;-69
2020/12/06 09:54:36;;;;;;;68.95;36.17;;;4.20;99.90;;;;;;5094704;28;20070;-69
2020/12/06 09:57:03;;;;;;;66.78;34.95;;;4.20;99.90;;;;;;5094667;28;20021;-69
2020/12/06 09:59:28;;;;;;;72.90;37.13;;;4.20;99.90;;;;;;5096443;28;20028;-69
2020/12/06 10:01:54;;;;;;;74.10;37.28;;;4.20;99.90;;;;;;5094748;28;20024;-69
2020/12/06 10:04:19;;;;;;;76.20;38.67;;;4.20;99.90;;;;;;5096042;28;20048;-69
2020/12/06 10:06:45;;;;;;;76.45;38.13;;;4.20;99.90;;;;;;5094807;28;20423;-69
2020/12/06 10:09:10;;;;;;;76.78;37.13;;;4.20;99.90;;;;;;5094458;28;20443;-69
2020/12/06 10:11:36;;;;;;;76.95;36.92;;;4.20;99.90;;;;;;5077641;28;20027;-69
2020/12/06 10:14:01;;;;;;;77.68;37.65;;;4.20;99.90;;;;;;5095919;28;20043;-69
2020/12/06 10:16:27;;;;;;;81.32;40.30;;;4.20;99.90;;;;;;5095872;28;20028;-69
2020/12/06 10:18:54;;;;;;;83.35;40.15;;;4.20;99.90;;;;;;5095588;28;20024;-69
2020/12/06 10:21:20;;;;;;;89.82;41.70;;;4.20;99.90;;;;;;5094935;28;20024;-69
2020/12/06 10:23:45;;;;;;;87.10;40.80;;;4.10;99.90;;;;;;5096025;28;20376;-69
2020/12/06 10:26:12;;;;;;;90.70;42.78;;;4.10;99.90;;;;;;5094438;28;20483;-69
2020/12/06 10:28:37;;;;;;;99.53;45.30;;;4.10;99.90;;;;;;5095931;28;20119;-69
2020/12/06 10:31:03;;;;;;;94.30;44.25;;;4.10;99.90;;;;;;5094032;28;20481;-69
2020/12/06 10:33:29;;;;;;;96.90;43.08;;;4.10;99.90;;;;;;5094955;28;20024;-69
2020/12/06 10:35:54;;;;;;;97.63;45.20;;;4.10;99.90;;;;;;5077714;28;20378;-69
2020/12/06 10:38:20;;;;;;;101.75;44.78;;;4.10;99.90;;;;;;5095682;28;20028;-69
2020/12/06 10:40:45;;;;;;;94.00;45.33;;;4.10;99.90;;;;;;5094628;28;20361;-69
2020/12/06 10:43:11;;;;;;;95.72;43.92;;;4.20;99.90;;;;;;5077000;28;20449;-69
2020/12/06 10:45:37;;;;;;;86.28;42.22;;;4.20;99.90;;;;;;5095218;28;20098;-69
2020/12/06 10:48:03;;;;;;;88.15;41.03;;;4.30;99.90;;;;;;5093991;28;20497;-69
2020/12/06 10:50:29;;;;;;;84.60;42.38;;;4.30;99.90;;;;;;5095159;28;20032;-69
2020/12/06 10:52:55;;;;;;;82.22;41.45;;;4.30;99.90;;;;;;5093601;28;20028;-70
2020/12/06 10:55:24;;;;;;;82.72;40.55;;;4.40;99.90;;;;;;5095102;28;20024;-69
2020/12/06 10:57:52;;;;;;;82.57;39.72;;;4.40;99.90;;;;;;5095324;28;20413;-69
2020/12/06 11:00:17;;;;;;;83.40;39.30;;;4.50;99.90;;;;;;5095169;28;20024;-70
2020/12/06 11:02:43;;;;;;;75.70;38.72;;;4.50;99.90;;;;;;5076571;28;20028;-68
2020/12/06 11:05:09;;;;;;;81.95;38.35;;;4.40;99.90;;;;;;5094615;28;20070;-70
2020/12/06 11:07:34;;;;;;;75.78;37.88;;;4.40;99.90;;;;;;5095103;28;20024;-70
2020/12/06 11:10:00;;;;;;;85.10;40.80;;;4.30;99.90;;;;;;5095097;28;20024;-70
2020/12/06 11:12:25;;;;;;;82.20;38.88;;;4.30;99.90;;;;;;5094721;28;20385;-70
2020/12/06 11:14:51;;;;;;;81.60;40.40;;;4.30;99.90;;;;;;5094472;28;20024;-70
2020/12/06 11:17:16;;;;;;;76.43;39.05;;;4.30;99.90;;;;;;5093978;28;20461;-70
2020/12/06 11:19:42;;;;;;;79.80;38.25;;;4.40;99.90;;;;;;5094629;28;20350;-69
2020/12/06 11:22:07;;;;;;;84.60;40.20;;;4.30;99.90;;;;;;5093025;28;20430;-69
2020/12/06 11:24:34;;;;;;;80.88;37.88;;;4.40;99.90;;;;;;5094191;28;20412;-69
2020/12/06 11:27:00;;;;;;;72.63;36.15;;;4.40;99.90;;;;;;5093548;28;20020;-69
2020/12/06 11:29:25;;;;;;;72.38;36.15;;;4.30;99.90;;;;;;5094468;28;20396;-69
2020/12/06 11:31:51;;;;;;;76.85;38.67;;;4.40;99.90;;;;;;5094063;28;20051;-69
2020/12/06 11:34:16;;;;;;;80.47;38.78;;;4.40;99.90;;;;;;5094622;28;20020;-69
2020/12/06 11:36:42;;;;;;;75.95;37.30;;;4.40;99.90;;;;;;5094023;28;20024;-69
2020/12/06 11:39:07;;;;;;;79.65;38.13;;;4.40;99.90;;;;;;5094507;28;20031;-69
2020/12/06 11:41:33;;;;;;;78.10;40.20;;;4.40;99.90;;;;;;5094413;28;20373;-69
2020/12/06 11:43:59;;;;;;;78.72;39.83;;;4.40;99.90;;;;;;5094483;28;20063;-69
2020/12/06 11:46:24;;;;;;;87.68;41.60;;;4.30;99.90;;;;;;5094347;28;20024;-69
2020/12/06 11:48:50;;;;;;;86.18;41.42;;;4.20;99.90;;;;;;5094398;28;20024;-69
2020/12/06 11:51:18;;;;;;;87.20;41.58;;;4.30;99.90;;;;;;5094384;28;20487;-69
2020/12/06 11:53:44;;;;;;;87.65;40.58;;;4.30;99.90;;;;;;5094118;28;20377;-69
2020/12/06 11:56:13;;;;;;;87.25;40.78;;;4.30;99.90;;;;;;5094328;28;20030;-69
2020/12/06 11:58:39;;;;;;;84.63;40.35;;;4.30;99.90;;;;;;5094235;28;20055;-69
2020/12/06 12:01:05;;;;;;;83.82;38.80;;;4.30;99.90;;;;;;5094303;28;20372;-69
2020/12/06 12:03:31;;;;;;;85.40;40.60;;;4.30;99.90;;;;;;5092765;28;20024;-69
2020/12/06 12:05:57;;;;;;;83.07;40.65;;;4.40;99.90;;;;;;5092356;28;20064;-69
2020/12/06 12:08:23;;;;;;;83.57;39.95;;;4.40;99.90;;;;;;5093932;28;20413;-69
2020/12/06 12:10:48;;;;;;;81.93;40.03;;;4.40;99.90;;;;;;5092342;28;20028;-69
2020/12/06 12:13:14;;;;;;;83.53;38.58;;;4.40;99.90;;;;;;5092712;28;20373;-69
2020/12/06 12:15:39;;;;;;;86.35;39.50;;;4.40;99.90;;;;;;5094123;28;20465;-69
2020/12/06 12:18:05;;;;;;;88.93;39.78;;;4.40;99.90;;;;;;5094087;28;20028;-69
2020/12/06 12:20:30;;;;;;;87.18;41.42;;;4.30;99.90;;;;;;5094061;28;20035;-69
2020/12/06 12:22:56;;;;;;;86.00;39.28;;;4.40;99.90;;;;;;5093797;28;20509;-69
2020/12/06 12:25:22;;;;;;;92.47;41.30;;;4.40;99.90;;;;;;5093899;28;20024;-69
2020/12/06 12:27:47;;;;;;;91.40;41.00;;;4.30;99.90;;;;;;5092558;28;20029;-69
2020/12/06 12:30:13;;;;;;;99.38;45.75;;;4.30;99.90;;;;;;5093968;28;20480;-69
2020/12/06 12:32:39;;;;;;;89.63;42.42;;;4.30;99.90;;;;;;5093424;28;20071;-69
2020/12/06 12:35:04;;;;;;;89.10;41.90;;;4.30;99.90;;;;;;5093993;28;20035;-69